Sherman, TX

2:02 AM CST en Noviembre 24, 2014 (GMT -0600)
SE Jct 56/11 | Change Station
CLOSE
Current Station
Estación meteorológica personal
Location: Sherman, TX
Altura: 746 ft
Estaciones meteorológicas cercanas

Alt 746 ft 33.63 °N, 96.58 °W | Updated 9 minutes ago

Despejado
Despejado
44.3 ° F
Sensación térmica 44 ° F
N
1.0
Viento Variable Viento desde ONO
Gusts 3.0 mph

Hoy
Alta -- | Baja -- ° F
--% Posibilidad de precipitaciones
Ayer
Alta -- | Baja -- ° F
Precip. -- pul
7:06 AM 5:19 PM
Creciente, 4% visible
Presión 29.86 pul
Visibilidad 10.0 Millas
Nubes Despejado
Vientos helados 44 ° F
Punto de rocío 37 ° F
Humedad 76%
Precipitaciones 0.00 pul
Espesor de la nieve No disponible.
UV 0 de una escala de 12
Polen 3.70 de una escala de 12
Calidad del aire No disponible.
Flu Activity No disponible.
METAR KGYI 240755Z AUTO 28004KT 10SM CLR 06/04 A2986 RMK AO2 T00600037

More Conditions Fewer Conditions

Presión 29.86 pul
Visibilidad 10.0 Millas
Nubes Despejado
Vientos helados 44 ° F
Punto de rocío 37 ° F
Humedad 76%
Precipitaciones 0.00 pul
Espesor de la nieve No disponible.
UV 0 de una escala de 12
Polen 3.70 de una escala de 12
Calidad del aire No disponible.
Flu Activity No disponible.
METAR KGYI 240755Z AUTO 28004KT 10SM CLR 06/04 A2986 RMK AO2 T00600037

More Conditions Fewer Conditions

10-Day Weather Forecast

Almanac

Astronomía

Nov. 24, 2014 Salida Puesta
Hora real
Crepúsculo civil
Crepúsculo náutico
Crepúsculo astronómico
Luna
Horas de luz
Horas de luz
Tomorrow will be .
, % of the Moon is Illuminated

Extremos de hoy

Máximos del estado Bajos del estado

Community

WunderPhotos

Upload Photos

1,773,295 ¡fotos cargadas!

WunderBlogs® & News

Nearby

Calidad del aire

  Calidad del aire Índice AQ Contaminante
Not available.

Grosos de nieve

Estación Profundido Altura

Actividad de terremotos

Ciudad Distance Mag. Tiempo y dato
Magnitud mínima muestra es 2,5.

Temperaturas de aguas costeras

Lugar Temperatura

Estaciones meteorológicas cercanas